createdAt,value
2023-04-25T00:01:25.281Z,11.39
2023-04-25T00:03:52.314Z,11.42
2023-04-25T00:06:19.559Z,11.45
2023-04-25T00:08:46.347Z,11.46
2023-04-25T00:11:13.040Z,11.46
2023-04-25T00:13:42.669Z,11.46
2023-04-25T00:16:09.625Z,11.47
2023-04-25T00:18:37.392Z,11.43
2023-04-25T00:21:07.094Z,11.43
2023-04-25T00:23:33.854Z,11.43
2023-04-25T00:26:00.495Z,11.42
2023-04-25T00:28:27.173Z,11.36
2023-04-25T00:30:54.086Z,11.33
2023-04-25T00:33:20.794Z,11.33
2023-04-25T00:35:47.557Z,11.31
2023-04-25T00:38:14.425Z,11.31
2023-04-25T00:40:41.148Z,11.32
2023-04-25T00:43:07.846Z,11.32
2023-04-25T00:45:39.094Z,11.28
2023-04-25T00:48:05.945Z,11.28
2023-04-25T00:50:34.864Z,11.28
2023-04-25T00:53:01.641Z,11.29
2023-04-25T00:55:28.480Z,11.29
2023-04-25T00:57:55.367Z,11.22
2023-04-25T01:00:22.552Z,11.22
2023-04-25T01:02:49.441Z,11.22
2023-04-25T01:05:16.433Z,11.25
2023-04-25T01:07:43.291Z,11.20
2023-04-25T01:10:10.369Z,11.16
2023-04-25T01:12:37.153Z,11.14
2023-04-25T01:15:04.461Z,11.12
2023-04-25T01:17:32.433Z,11.12
2023-04-25T01:19:59.365Z,11.13
2023-04-25T01:22:26.828Z,11.13
2023-04-25T01:24:53.634Z,11.11
2023-04-25T01:27:21.787Z,11.11
2023-04-25T01:29:48.830Z,11.11
2023-04-25T01:32:16.029Z,11.08
2023-04-25T01:34:42.853Z,11.06
2023-04-25T01:37:09.646Z,11.04
2023-04-25T01:39:36.381Z,11.08
2023-04-25T01:42:03.288Z,11.05
2023-04-25T01:44:30.054Z,11.00
2023-04-25T01:46:56.818Z,10.97
2023-04-25T01:49:24.634Z,10.95
2023-04-25T01:51:51.444Z,10.91
2023-04-25T01:54:18.210Z,10.93
2023-04-25T01:56:45.194Z,10.90
2023-04-25T01:59:12.208Z,10.94
2023-04-25T02:01:38.998Z,10.87
2023-04-25T02:04:05.969Z,10.92
2023-04-25T02:06:33.203Z,10.95
2023-04-25T02:09:00.000Z,10.98
2023-04-25T02:11:26.748Z,11.00
2023-04-25T02:13:53.446Z,11.00
2023-04-25T02:16:20.376Z,11.00
2023-04-25T02:18:47.977Z,11.01
2023-04-25T02:21:14.746Z,11.04
2023-04-25T02:23:41.588Z,11.03
2023-04-25T02:26:08.278Z,11.04
2023-04-25T02:28:35.017Z,11.01
2023-04-25T02:31:01.822Z,11.09
2023-04-25T02:33:28.596Z,11.13
2023-04-25T02:35:55.371Z,11.14
2023-04-25T02:38:22.048Z,11.20
2023-04-25T02:40:48.746Z,11.21
2023-04-25T02:43:15.470Z,11.24
2023-04-25T02:45:42.205Z,11.26
2023-04-25T02:48:08.989Z,11.26
2023-04-25T02:50:35.849Z,11.26
2023-04-25T02:53:02.554Z,11.24
2023-04-25T02:55:29.251Z,11.21
2023-04-25T02:57:58.741Z,11.19
2023-04-25T03:00:25.537Z,11.14
2023-04-25T03:02:52.385Z,11.08
2023-04-25T03:05:19.246Z,11.03
2023-04-25T03:07:46.716Z,10.99
2023-04-25T03:10:13.437Z,10.98
2023-04-25T03:12:40.300Z,10.95
2023-04-25T03:15:07.420Z,10.82
2023-04-25T03:17:34.359Z,10.73
2023-04-25T03:20:01.529Z,10.71
2023-04-25T03:22:28.313Z,10.68
2023-04-25T03:24:55.105Z,10.68
2023-04-25T03:27:21.866Z,10.66
2023-04-25T03:29:48.661Z,10.60
2023-04-25T03:32:15.388Z,10.60
2023-04-25T03:34:42.304Z,10.60
2023-04-25T03:37:09.029Z,10.55
2023-04-25T03:39:36.144Z,10.54
2023-04-25T03:42:03.980Z,10.53
2023-04-25T03:44:30.822Z,10.46
2023-04-25T03:46:57.804Z,10.42
2023-04-25T03:49:25.337Z,10.36
2023-04-25T03:51:52.064Z,10.30
2023-04-25T03:54:18.818Z,10.33
2023-04-25T03:56:45.524Z,10.30
2023-04-25T03:59:15.238Z,10.28
2023-04-25T04:01:41.982Z,10.29
2023-04-25T04:04:09.189Z,10.27
2023-04-25T04:06:37.451Z,10.22
2023-04-25T04:09:04.424Z,10.17
2023-04-25T04:11:32.371Z,10.14
2023-04-25T04:13:59.222Z,10.10
2023-04-25T04:16:26.087Z,10.11
2023-04-25T04:18:52.843Z,10.10
2023-04-25T04:21:19.565Z,10.09
2023-04-25T04:23:47.568Z,10.04
2023-04-25T04:26:16.309Z,9.97
2023-04-25T04:28:44.988Z,9.95
2023-04-25T04:31:12.636Z,10.00
2023-04-25T04:33:39.439Z,9.94
2023-04-25T04:36:08.587Z,9.97
2023-04-25T04:38:35.646Z,9.98
2023-04-25T04:41:02.474Z,9.92
2023-04-25T04:43:29.585Z,9.90
2023-04-25T04:45:59.660Z,9.91
2023-04-25T04:48:26.382Z,9.87
2023-04-25T04:50:53.213Z,9.87
2023-04-25T04:53:20.042Z,9.86
2023-04-25T04:55:47.201Z,9.76
2023-04-25T04:58:14.013Z,9.85
2023-04-25T05:00:41.291Z,9.87
2023-04-25T05:03:08.227Z,9.91
2023-04-25T05:05:35.597Z,9.81
2023-04-25T05:08:04.464Z,9.85
2023-04-25T05:10:31.174Z,9.77
2023-04-25T05:12:57.887Z,9.71
2023-04-25T05:15:24.655Z,9.69
2023-04-25T05:17:51.639Z,9.60
2023-04-25T05:20:20.005Z,9.59
2023-04-25T05:22:46.861Z,9.51
2023-04-25T05:25:13.611Z,9.54
2023-04-25T05:27:40.309Z,9.53
2023-04-25T05:30:08.031Z,9.52
2023-04-25T05:32:34.832Z,9.52
2023-04-25T05:35:01.639Z,9.43
2023-04-25T05:37:28.352Z,9.79
2023-04-25T05:39:55.329Z,10.13
2023-04-25T05:42:22.270Z,10.55
2023-04-25T05:44:49.087Z,11.10
2023-04-25T05:47:16.245Z,11.27
2023-04-25T05:49:42.970Z,11.31
2023-04-25T05:52:09.656Z,11.43
2023-04-25T05:54:36.462Z,11.53
2023-04-25T05:57:03.720Z,11.54
2023-04-25T05:59:30.509Z,11.48
2023-04-25T06:01:57.220Z,11.42
2023-04-25T06:04:24.236Z,11.14
2023-04-25T06:06:51.638Z,10.96
2023-04-25T06:09:18.460Z,10.80
2023-04-25T06:11:45.799Z,10.69
2023-04-25T06:14:12.501Z,10.60
2023-04-25T06:16:39.257Z,10.54
2023-04-25T06:19:06.214Z,10.36
2023-04-25T06:21:33.434Z,10.28
2023-04-25T06:24:00.444Z,10.22
2023-04-25T06:26:27.168Z,10.07
2023-04-25T06:28:53.922Z,10.07
2023-04-25T06:31:20.826Z,10.15
2023-04-25T06:33:49.498Z,10.17
2023-04-25T06:36:16.491Z,10.26
2023-04-25T06:38:43.430Z,10.20
2023-04-25T06:41:10.663Z,10.30
2023-04-25T06:43:37.425Z,10.42
2023-04-25T06:46:04.377Z,10.51
2023-04-25T06:48:31.151Z,10.55
2023-04-25T06:50:57.919Z,10.65
2023-04-25T06:53:24.642Z,10.73
2023-04-25T06:55:51.386Z,10.81
2023-04-25T06:58:18.821Z,10.87
2023-04-25T07:00:45.714Z,10.92
2023-04-25T07:03:14.546Z,11.03
2023-04-25T07:05:41.633Z,11.05
2023-04-25T07:08:08.382Z,11.11
2023-04-25T07:10:36.136Z,11.09
2023-04-25T07:13:02.928Z,11.22
2023-04-25T07:15:29.711Z,11.24
2023-04-25T07:17:56.521Z,11.32
2023-04-25T07:20:23.314Z,11.39
2023-04-25T07:22:51.169Z,11.50
2023-04-25T07:25:18.307Z,11.58
2023-04-25T07:27:45.470Z,11.67
2023-04-25T07:30:13.294Z,11.82
2023-04-25T07:32:40.704Z,12.05
2023-04-25T07:35:08.829Z,12.21
2023-04-25T07:37:36.472Z,12.39
2023-04-25T07:40:05.006Z,12.61
2023-04-25T07:42:32.333Z,12.82
2023-04-25T07:44:59.085Z,13.04
2023-04-25T07:47:26.550Z,13.22
2023-04-25T07:49:55.487Z,13.41
2023-04-25T07:52:22.561Z,13.60
2023-04-25T07:54:49.704Z,13.68
2023-04-25T07:57:18.052Z,13.87
2023-04-25T07:59:44.957Z,14.29
2023-04-25T08:02:11.763Z,14.66
2023-04-25T08:04:38.725Z,14.98
2023-04-25T08:07:05.588Z,15.07
2023-04-25T08:09:35.648Z,15.35
2023-04-25T08:12:03.138Z,15.35
2023-04-25T08:14:36.787Z,15.37
2023-04-25T08:17:04.770Z,15.57
2023-04-25T08:19:31.874Z,15.57
2023-04-25T08:21:59.000Z,15.65
2023-04-25T08:24:27.220Z,15.60
2023-04-25T08:26:54.979Z,15.56
2023-04-25T08:29:22.273Z,15.33
2023-04-25T08:31:49.357Z,15.26
2023-04-25T08:34:16.302Z,15.21
2023-04-25T08:36:43.139Z,15.15
2023-04-25T08:39:09.898Z,15.11
2023-04-25T08:41:38.177Z,15.14
2023-04-25T08:44:06.544Z,15.13
2023-04-25T08:46:33.751Z,15.05
2023-04-25T08:49:03.205Z,15.13
2023-04-25T08:51:33.188Z,15.15
2023-04-25T08:56:48.913Z,15.20
2023-04-25T08:59:15.931Z,15.43
2023-04-25T09:01:44.709Z,15.66
2023-04-25T09:04:13.748Z,15.77
2023-04-25T09:06:41.015Z,15.73
2023-04-25T09:09:09.638Z,15.92
2023-04-25T09:11:37.565Z,16.00
2023-04-25T09:14:26.107Z,15.81
2023-04-25T09:17:00.554Z,15.69
2023-04-25T09:19:46.862Z,15.70
2023-04-25T09:22:14.079Z,15.77
2023-04-25T09:24:47.144Z,15.57
2023-04-25T09:27:19.754Z,15.48
2023-04-25T09:29:47.384Z,15.13
2023-04-25T09:32:22.531Z,15.50
2023-04-25T09:34:51.609Z,15.77
2023-04-25T09:37:20.417Z,15.97
2023-04-25T09:39:48.812Z,15.75
2023-04-25T09:42:17.329Z,16.24
2023-04-25T09:44:45.861Z,16.47
2023-04-25T09:47:14.163Z,16.75
2023-04-25T09:49:45.059Z,17.03
2023-04-25T09:52:19.428Z,17.27
2023-04-25T09:54:47.330Z,17.43
2023-04-25T09:57:25.285Z,17.62
2023-04-25T09:59:53.817Z,17.59
2023-04-25T10:02:26.253Z,17.46
2023-04-25T10:04:56.150Z,17.59
2023-04-25T10:07:29.585Z,17.67
2023-04-25T10:10:01.583Z,17.68
2023-04-25T10:12:28.486Z,17.52
2023-04-25T10:14:56.067Z,17.29
2023-04-25T10:17:23.208Z,17.25
2023-04-25T10:19:50.500Z,17.24
2023-04-25T10:22:38.383Z,17.24
2023-04-25T10:25:05.971Z,17.17
2023-04-25T10:27:32.951Z,17.15
2023-04-25T10:30:12.571Z,17.20
2023-04-25T10:32:39.744Z,17.29
2023-04-25T10:35:13.496Z,17.33
2023-04-25T10:37:58.408Z,17.37
2023-04-25T10:40:25.563Z,17.17
2023-04-25T10:42:56.232Z,17.43
2023-04-25T10:45:23.321Z,17.92
2023-04-25T10:47:51.470Z,18.06
2023-04-25T10:50:19.022Z,18.66
2023-04-25T10:52:47.831Z,19.17
2023-04-25T10:55:14.854Z,19.53
2023-04-25T10:57:43.256Z,20.29
2023-04-25T11:00:12.673Z,21.16
2023-04-25T11:03:00.683Z,21.69
2023-04-25T11:05:50.971Z,22.13
2023-04-25T11:08:41.117Z,22.99
2023-04-25T11:11:09.129Z,23.44
2023-04-25T11:13:35.895Z,23.99
2023-04-25T11:16:12.175Z,24.12
2023-04-25T11:18:42.803Z,24.30
2023-04-25T11:21:12.379Z,23.91
2023-04-25T11:23:39.144Z,24.09
2023-04-25T11:26:06.097Z,23.26
2023-04-25T11:28:33.016Z,24.33
2023-04-25T11:30:59.814Z,25.82
2023-04-25T11:33:28.175Z,27.02
2023-04-25T11:35:56.408Z,26.98
2023-04-25T11:38:28.716Z,26.07
2023-04-25T11:40:56.404Z,25.16
2023-04-25T11:43:23.645Z,24.14
2023-04-25T11:45:52.079Z,23.27
2023-04-25T11:48:26.053Z,22.64
2023-04-25T11:50:55.026Z,22.07
2023-04-25T11:53:22.038Z,21.66
2023-04-25T11:55:48.877Z,21.34
2023-04-25T11:58:15.667Z,20.88
2023-04-25T12:00:50.576Z,20.52
2023-04-25T12:03:21.369Z,20.25
2023-04-25T12:05:48.583Z,20.11
2023-04-25T12:08:17.221Z,19.82
2023-04-25T12:10:46.427Z,19.77
2023-04-25T12:13:24.734Z,20.52
2023-04-25T12:15:51.825Z,21.03
2023-04-25T12:18:24.364Z,22.14
2023-04-25T12:20:51.156Z,24.81
2023-04-25T12:23:17.942Z,26.13
2023-04-25T12:25:48.076Z,26.39
2023-04-25T12:28:20.704Z,29.11
2023-04-25T12:31:04.206Z,30.92
2023-04-25T12:33:33.570Z,30.83
2023-04-25T12:36:02.058Z,31.20
2023-04-25T12:38:31.440Z,31.75
2023-04-25T12:40:59.174Z,33.62
2023-04-25T12:43:25.973Z,33.59
2023-04-25T12:45:56.535Z,34.14
2023-04-25T12:48:23.875Z,34.75
2023-04-25T12:50:54.947Z,35.46
2023-04-25T12:53:23.981Z,35.89
2023-04-25T12:55:50.900Z,36.11
2023-04-25T12:58:19.039Z,36.81
2023-04-25T13:00:46.135Z,36.55
2023-04-25T13:03:14.133Z,36.16
2023-04-25T13:05:42.086Z,36.11
2023-04-25T13:08:09.138Z,35.96
2023-04-25T13:10:37.080Z,37.37
2023-04-25T13:13:03.992Z,37.34
2023-04-25T13:15:31.748Z,37.77
2023-04-25T13:17:58.525Z,37.12
2023-04-25T13:20:25.774Z,38.22
2023-04-25T13:22:52.662Z,37.74
2023-04-25T13:25:19.872Z,37.09
2023-04-25T13:27:47.449Z,37.84
2023-04-25T13:30:14.780Z,38.31
2023-04-25T13:32:42.147Z,38.12
2023-04-25T13:35:13.487Z,38.00
2023-04-25T13:37:40.862Z,36.68
2023-04-25T13:40:11.162Z,36.73
2023-04-25T13:42:39.180Z,37.05
2023-04-25T13:45:06.803Z,33.40
2023-04-25T13:47:33.760Z,34.97
2023-04-25T13:50:01.245Z,33.61
2023-04-25T13:52:28.397Z,33.69
2023-04-25T13:54:55.305Z,35.28
2023-04-25T13:57:22.035Z,36.46
2023-04-25T13:59:48.915Z,36.91
2023-04-25T14:02:16.715Z,38.00
2023-04-25T14:04:43.592Z,36.19
2023-04-25T14:07:11.949Z,36.04
2023-04-25T14:09:38.789Z,35.49
2023-04-25T14:12:07.650Z,34.28
2023-04-25T14:14:34.423Z,33.52
2023-04-25T14:17:01.439Z,31.87
2023-04-25T14:19:29.726Z,32.49
2023-04-25T14:21:57.090Z,31.36
2023-04-25T14:24:23.804Z,32.65
2023-04-25T14:26:50.823Z,33.88
2023-04-25T14:29:17.837Z,34.89
2023-04-25T14:31:46.113Z,34.42
2023-04-25T14:34:13.060Z,35.85
2023-04-25T14:36:39.831Z,36.70
2023-04-25T14:39:06.668Z,34.30
2023-04-25T14:41:33.435Z,36.04
2023-04-25T14:44:00.933Z,36.05
2023-04-25T14:46:27.948Z,36.83
2023-04-25T14:48:56.755Z,36.82
2023-04-25T14:51:23.893Z,37.93
2023-04-25T14:53:52.266Z,38.32
2023-04-25T14:56:19.811Z,38.62
2023-04-25T14:58:46.706Z,37.67
2023-04-25T15:01:14.067Z,35.71
2023-04-25T15:03:41.670Z,33.79
2023-04-25T15:06:08.588Z,31.70
2023-04-25T15:08:35.591Z,29.21
2023-04-25T15:11:03.378Z,27.70
2023-04-25T15:13:30.270Z,26.42
2023-04-25T15:15:56.968Z,25.34
2023-04-25T15:18:24.756Z,24.68
2023-04-25T15:20:52.611Z,23.49
2023-04-25T15:23:20.815Z,22.72
2023-04-25T15:25:48.282Z,22.08
2023-04-25T15:28:16.855Z,21.61
2023-04-25T15:30:44.488Z,21.10
2023-04-25T15:33:11.354Z,20.66
2023-04-25T15:35:38.363Z,20.04
2023-04-25T15:38:05.538Z,19.65
2023-04-25T15:40:32.287Z,19.56
2023-04-25T15:42:59.742Z,19.33
2023-04-25T15:45:26.798Z,19.17
2023-04-25T15:47:55.237Z,18.88
2023-04-25T15:50:22.489Z,18.42
2023-04-25T15:52:50.521Z,17.77
2023-04-25T15:55:21.123Z,17.49
2023-04-25T15:57:49.765Z,17.22
2023-04-25T16:00:21.202Z,17.00
2023-04-25T16:02:48.684Z,16.68
2023-04-25T16:05:16.534Z,16.44
2023-04-25T16:07:44.814Z,16.17
2023-04-25T16:10:12.557Z,16.01
2023-04-25T16:12:40.775Z,16.00
2023-04-25T16:15:08.085Z,15.95
2023-04-25T16:17:35.239Z,15.86
2023-04-25T16:20:05.417Z,15.64
2023-04-25T16:22:32.367Z,15.41
2023-04-25T16:24:59.121Z,15.23
2023-04-25T16:27:25.901Z,14.99
2023-04-25T16:29:52.663Z,14.91
2023-04-25T16:32:19.649Z,14.86
2023-04-25T16:34:46.468Z,14.74
2023-04-25T16:37:13.180Z,14.63
2023-04-25T16:39:39.981Z,14.52
2023-04-25T16:42:06.912Z,14.46
2023-04-25T16:44:33.596Z,14.47
2023-04-25T16:47:00.448Z,14.46
2023-04-25T16:49:28.557Z,14.50
2023-04-25T16:51:55.676Z,14.36
2023-04-25T16:54:22.441Z,14.28
2023-04-25T16:56:49.130Z,14.24
2023-04-25T16:59:15.863Z,14.20
2023-04-25T17:01:42.576Z,14.23
2023-04-25T17:04:09.542Z,14.20
2023-04-25T17:06:36.439Z,14.09
2023-04-25T17:09:03.207Z,13.95
2023-04-25T17:11:30.376Z,13.84
2023-04-25T17:13:57.178Z,13.67
2023-04-25T17:16:24.138Z,13.51
2023-04-25T17:18:51.666Z,13.35
2023-04-25T17:21:19.012Z,13.16
2023-04-25T17:23:45.938Z,13.05
2023-04-25T17:26:13.191Z,12.90
2023-04-25T17:28:41.941Z,12.82
2023-04-25T17:31:09.810Z,12.69
2023-04-25T17:33:36.733Z,12.56
2023-04-25T17:36:04.174Z,12.42
2023-04-25T17:38:31.623Z,12.28
2023-04-25T17:40:58.876Z,12.17
2023-04-25T17:43:27.568Z,12.07
2023-04-25T17:45:54.659Z,11.97
2023-04-25T17:48:24.945Z,11.86
2023-04-25T17:50:51.723Z,11.72
2023-04-25T17:53:18.561Z,11.61
2023-04-25T17:55:45.372Z,11.52
2023-04-25T17:58:12.232Z,11.46
2023-04-25T18:00:39.141Z,11.33
2023-04-25T18:03:06.878Z,11.23
2023-04-25T18:05:33.634Z,11.16
2023-04-25T18:08:00.750Z,11.06
2023-04-25T18:10:27.790Z,10.96
2023-04-25T18:12:54.576Z,10.88
2023-04-25T18:15:22.166Z,10.79
2023-04-25T18:17:49.193Z,10.74
2023-04-25T18:20:17.192Z,10.66
2023-04-25T18:22:45.340Z,10.62
2023-04-25T18:25:13.389Z,10.55
2023-04-25T18:27:40.909Z,10.53
2023-04-25T18:30:09.491Z,10.44
2023-04-25T18:32:36.825Z,10.40
2023-04-25T18:35:04.593Z,10.38
2023-04-25T18:37:31.424Z,10.39
2023-04-25T18:39:58.633Z,10.37
2023-04-25T18:42:25.480Z,10.30
2023-04-25T18:44:52.480Z,10.27
2023-04-25T18:47:19.458Z,10.23
2023-04-25T18:49:47.727Z,10.18
2023-04-25T18:52:16.059Z,10.15
2023-04-25T18:54:42.944Z,10.12
2023-04-25T18:57:11.549Z,10.11
2023-04-25T18:59:38.223Z,10.07
2023-04-25T19:02:05.474Z,10.02
2023-04-25T19:04:32.726Z,10.04
2023-04-25T19:06:59.787Z,10.01
2023-04-25T19:09:26.720Z,9.91
2023-04-25T19:11:54.171Z,9.95
2023-04-25T19:14:20.974Z,9.93
2023-04-25T19:16:47.750Z,9.91
2023-04-25T19:19:14.598Z,9.88
2023-04-25T19:21:41.822Z,9.87
2023-04-25T19:24:08.862Z,9.88
2023-04-25T19:26:35.722Z,9.87
2023-04-25T19:29:07.262Z,9.84
2023-04-25T19:31:38.159Z,9.80
2023-04-25T19:34:06.338Z,9.79
2023-04-25T19:36:33.762Z,9.77
2023-04-25T19:39:04.605Z,9.74
2023-04-25T19:41:33.337Z,9.68
2023-04-25T19:44:04.580Z,9.67
2023-04-25T19:46:34.468Z,9.60
2023-04-25T19:49:01.613Z,9.56
2023-04-25T19:51:28.999Z,9.52
2023-04-25T19:53:56.003Z,9.46
2023-04-25T19:56:24.353Z,9.40
2023-04-25T19:58:51.476Z,9.36
2023-04-25T20:01:22.068Z,9.33
2023-04-25T20:03:51.788Z,9.29
2023-04-25T20:06:18.931Z,9.30
2023-04-25T20:08:47.076Z,9.26
2023-04-25T20:11:14.901Z,9.23
2023-04-25T20:13:41.942Z,9.21
2023-04-25T20:16:08.850Z,9.17
2023-04-25T20:18:35.647Z,9.16
2023-04-25T20:21:03.185Z,9.01
2023-04-25T20:23:30.070Z,8.98
2023-04-25T20:25:56.919Z,8.95
2023-04-25T20:28:23.757Z,8.93
2023-04-25T20:30:50.841Z,8.88
2023-04-25T20:33:17.603Z,8.81
2023-04-25T20:35:44.361Z,8.77
2023-04-25T20:38:12.057Z,8.72
2023-04-25T20:40:38.842Z,8.64
2023-04-25T20:43:05.767Z,8.67
2023-04-25T20:45:34.446Z,8.65
2023-04-25T20:48:02.710Z,8.61
2023-04-25T20:50:29.567Z,8.60
2023-04-25T20:52:56.300Z,8.52
2023-04-25T20:55:23.004Z,8.50
2023-04-25T20:57:50.099Z,8.44
2023-04-25T21:00:18.739Z,8.42
2023-04-25T21:02:46.650Z,8.40
2023-04-25T21:05:13.741Z,8.35
2023-04-25T21:07:40.539Z,8.35
2023-04-25T21:10:07.584Z,8.33
2023-04-25T21:12:35.573Z,8.31
2023-04-25T21:15:02.510Z,8.24
2023-04-25T21:17:29.343Z,8.20
2023-04-25T21:19:56.659Z,8.18
2023-04-25T21:22:23.491Z,8.15
2023-04-25T21:24:50.778Z,8.09
2023-04-25T21:27:17.714Z,8.06
2023-04-25T21:29:45.004Z,8.02
2023-04-25T21:32:11.794Z,7.93
2023-04-25T21:34:38.534Z,7.91
2023-04-25T21:37:05.844Z,7.89
2023-04-25T21:39:32.848Z,7.85
2023-04-25T21:42:01.349Z,7.83
2023-04-25T21:44:30.229Z,7.79
2023-04-25T21:46:57.120Z,7.79
2023-04-25T21:49:29.199Z,7.70
2023-04-25T21:51:56.964Z,7.67
2023-04-25T21:54:23.721Z,7.63
2023-04-25T21:56:51.744Z,7.57
2023-04-25T21:59:18.436Z,7.53
2023-04-25T22:01:45.475Z,7.48
2023-04-25T22:04:12.496Z,7.47
2023-04-25T22:06:39.362Z,7.44
2023-04-25T22:09:06.102Z,7.40
2023-04-25T22:11:32.857Z,7.41
2023-04-25T22:13:59.723Z,7.38
2023-04-25T22:16:26.441Z,7.38
2023-04-25T22:18:53.709Z,7.37
2023-04-25T22:21:20.668Z,7.33
2023-04-25T22:23:47.357Z,7.31
2023-04-25T22:26:14.416Z,7.28
2023-04-25T22:28:41.372Z,7.28
2023-04-25T22:31:08.573Z,7.27
2023-04-25T22:33:35.868Z,7.24
2023-04-25T22:36:03.199Z,7.22
2023-04-25T22:38:30.501Z,7.21
2023-04-25T22:40:57.258Z,7.16
2023-04-25T22:43:24.070Z,7.17
2023-04-25T22:45:52.236Z,7.14
2023-04-25T22:48:19.634Z,7.14
2023-04-25T22:50:46.568Z,7.17
2023-04-25T22:53:13.330Z,7.21
2023-04-25T22:55:40.074Z,7.28
2023-04-25T22:58:10.098Z,7.35
2023-04-25T23:00:37.701Z,7.43
2023-04-25T23:03:04.966Z,7.53
2023-04-25T23:05:32.972Z,7.61
2023-04-25T23:07:59.866Z,7.68
2023-04-25T23:10:28.182Z,7.76
2023-04-25T23:12:57.960Z,7.84
2023-04-25T23:15:30.974Z,7.92
2023-04-25T23:17:58.577Z,8.03
2023-04-25T23:20:25.465Z,8.06
2023-04-25T23:22:52.652Z,8.09
2023-04-25T23:25:19.399Z,8.12
2023-04-25T23:27:46.238Z,8.15
2023-04-25T23:30:13.783Z,8.18
2023-04-25T23:32:40.651Z,8.22
2023-04-25T23:35:08.174Z,8.26
2023-04-25T23:37:37.167Z,8.29
2023-04-25T23:40:10.578Z,8.32
2023-04-25T23:42:38.069Z,8.32
2023-04-25T23:45:06.740Z,8.33
2023-04-25T23:47:34.086Z,8.35
2023-04-25T23:50:01.628Z,8.37
2023-04-25T23:52:28.563Z,8.39
2023-04-25T23:54:56.253Z,8.39
2023-04-25T23:57:22.973Z,8.40
2023-04-25T23:59:49.791Z,8.43
